Time;durP1;ratioP1;P1;durP2;ratioP2;P2;SDS_P1;SDS_P2;PMS_P1;PMS_P2;Temp;Humidity;BMP_temperature;BMP_pressure;BME280_temperature;BME280_humidity;BME280_pressure;Samples;Min_cycle;Max_cycle;Signal;HPM_P1;HPM_P2
2021/11/10 08:03:35;;;;;;;36.30;26.70;;;;;;;7.19;68.47;101551.33;99134;1351;636223;-64
2021/11/10 08:06:22;;;;;;;41.70;26.40;;;;;;;7.31;67.82;101559.64;102259;1329;137650;-65
2021/11/10 08:09:09;;;;;;;40.30;25.80;;;;;;;7.46;67.98;101559.85;101704;1329;94154;-65
2021/11/10 08:11:56;;;;;;;38.90;23.80;;;;;;;7.63;66.65;101559.52;102303;1328;136562;-65
2021/11/10 08:14:43;;;;;;;37.10;27.70;;;;;;;7.80;66.48;101559.36;102298;1332;108226;-65
2021/11/10 08:17:30;;;;;;;46.50;41.60;;;;;;;7.94;65.62;101550.02;102343;1325;188892;-65
2021/11/10 08:20:18;;;;;;;37.50;32.40;;;;;;;8.00;65.39;101553.30;101440;1325;94447;-65
2021/11/10 08:23:04;;;;;;;38.80;28.60;;;;;;;8.16;65.22;101549.47;102592;1326;137411;-65
2021/11/10 08:25:52;;;;;;;36.20;27.50;;;;;;;8.38;64.73;101544.42;102642;1326;107509;-65
2021/11/10 08:28:39;;;;;;;37.10;24.90;;;;;;;8.62;64.33;101548.36;101531;1329;139147;-63
2021/11/10 08:31:25;;;;;;;36.30;24.70;;;;;;;8.77;63.32;101554.02;102186;1326;108763;-65
2021/11/10 08:34:12;;;;;;;37.00;24.70;;;;;;;8.91;62.21;101545.45;102654;1325;137514;-63
2021/11/10 08:36:59;;;;;;;33.60;24.70;;;;;;;9.14;62.33;101540.14;102468;1326;95137;-64
2021/11/10 08:39:46;;;;;;;53.40;25.20;;;;;;;9.36;62.50;101540.70;103103;1326;108999;-62
2021/11/10 08:42:33;;;;;;;34.20;23.30;;;;;;;9.79;61.31;101532.91;103538;1326;137356;-63
2021/11/10 08:45:25;;;;;;;32.70;23.70;;;;;;;10.23;60.62;101526.09;103606;1325;108876;-64
2021/11/10 08:48:12;;;;;;;33.20;23.90;;;;;;;10.59;58.70;101526.91;102755;1329;137596;-67
2021/11/10 08:50:59;;;;;;;;;;;;;;;10.91;58.55;101523.05;103179;1326;93428;-64
2021/11/10 08:53:46;;;;;;;30.90;23.50;;;;;;;11.19;58.98;101520.22;102883;1331;123469;-63
2021/11/10 08:56:33;;;;;;;35.30;23.50;;;;;;;11.51;58.04;101514.86;102843;1326;109828;-64
2021/11/10 08:59:21;;;;;;;36.90;23.50;;;;;;;11.87;57.64;101513.95;103159;1325;139499;-64
2021/11/10 09:02:08;;;;;;;36.70;24.50;;;;;;;12.14;56.66;101515.20;102856;1332;93245;-64
2021/11/10 09:04:55;;;;;;;28.90;22.40;;;;;;;12.31;56.09;101508.43;103086;1326;138344;-63
2021/11/10 09:07:42;;;;;;;28.30;22.00;;;;;;;12.46;55.46;101511.80;103042;1318;108735;-63
2021/11/10 09:10:33;;;;;;;31.20;21.80;;;;;;;12.59;54.99;101500.55;102890;1320;137976;-63
2021/11/10 09:13:20;;;;;;;29.60;21.40;;;;;;;12.51;54.25;101499.84;104297;1323;108131;-64
2021/11/10 09:16:07;;;;;;;31.30;21.40;;;;;;;12.54;55.01;101494.38;103364;1325;93819;-64
2021/11/10 09:18:54;;;;;;;31.20;23.20;;;;;;;12.71;55.79;101486.17;103824;1325;138691;-64
2021/11/10 09:21:41;;;;;;;30.50;22.70;;;;;;;13.02;56.09;101491.95;103708;1322;108854;-63
2021/11/10 09:24:28;;;;;;;32.60;22.30;;;;;;;13.32;55.61;101489.52;102821;1319;138020;-63
2021/11/10 09:27:17;;;;;;;32.70;21.90;;;;;;;13.52;53.98;101484.67;102950;1320;108573;-64
2021/11/10 09:30:13;;;;;;;31.60;22.20;;;;;;;13.55;53.00;101476.58;103297;1324;138563;-64
2021/11/10 09:33:01;;;;;;;32.60;23.40;;;;;;;13.60;53.08;101472.77;102168;1317;101571;-64
2021/11/10 09:35:52;;;;;;;32.10;22.20;;;;;;;13.82;54.45;101471.86;100907;1317;138078;-64
2021/11/10 09:38:39;;;;;;;28.10;20.80;;;;;;;14.07;52.92;101465.61;100907;1319;109278;-64
2021/11/10 09:41:27;;;;;;;32.20;20.90;;;;;;;14.05;52.47;101459.54;100887;1321;137693;-64
2021/11/10 09:44:15;;;;;;;;;;;;;;;14.04;52.17;101451.18;100955;1314;96905;-64
2021/11/10 09:47:03;;;;;;;31.90;20.80;;;;;;;13.92;51.72;101452.03;100739;1319;123969;-65
2021/11/10 09:49:51;;;;;;;28.60;20.60;;;;;;;13.94;51.56;101449.69;100859;1320;108571;-65
2021/11/10 09:52:38;;;;;;;;;;;;;;;13.82;51.01;101449.15;101424;1319;138717;-65
2021/11/10 09:55:28;;;;;;;29.00;19.20;;;;;;;13.65;51.23;101445.38;102396;1318;108999;-64
2021/11/10 09:58:16;;;;;;;29.50;20.40;;;;;;;13.57;51.70;101439.14;102415;1316;94532;-64
2021/11/10 10:01:07;;;;;;;;;;;;;;;13.65;52.01;101435.59;101669;1319;138597;-64
2021/11/10 10:03:56;;;;;;;26.30;19.50;;;;;;;13.57;50.60;101425.65;101970;1319;109729;-65
2021/11/10 10:06:44;;;;;;;25.90;19.30;;;;;;;13.42;50.09;101434.09;101003;1319;138057;-65
2021/11/10 10:09:32;;;;;;;28.30;19.40;;;;;;;13.20;50.30;101430.24;100976;1320;110490;-65
2021/11/10 10:12:20;;;;;;;32.70;20.20;;;;;;;13.02;51.31;101423.85;100976;1319;137811;-63
2021/11/10 10:15:09;;;;;;;;;;;;;;;12.97;51.44;101421.17;101009;1319;95626;-62
2021/11/10 10:17:59;;;;;;;25.30;19.40;;;;;;;12.85;51.08;101431.39;101038;1320;124201;-65
2021/11/10 10:20:53;;;;;;;28.50;19.60;;;;;;;12.70;51.57;101429.30;101042;1314;108930;-65
2021/11/10 10:23:44;;;;;;;28.10;19.00;;;;;;;12.65;52.49;101434.12;100937;1322;137930;-64
2021/11/10 10:26:31;;;;;;;25.70;18.30;;;;;;;12.68;52.82;101416.25;101132;1316;96736;-65
2021/11/10 10:29:18;;;;;;;28.50;18.60;;;;;;;12.75;52.72;101412.61;101581;1320;137654;-65
2021/11/10 10:32:06;;;;;;;26.80;19.90;;;;;;;12.85;52.56;101410.80;101200;1316;109610;-64
2021/11/10 10:34:53;;;;;;;32.30;20.60;;;;;;;12.80;52.44;101411.80;102569;1316;139343;-64
2021/11/10 10:37:49;;;;;;;27.20;18.90;;;;;;;12.77;52.53;101413.98;101980;1314;108911;-64
2021/11/10 10:40:40;;;;;;;27.30;17.50;;;;;;;12.61;52.11;101407.49;103007;1316;96371;-63
2021/11/10 10:43:29;;;;;;;24.50;17.70;;;;;;;12.39;52.30;101408.49;102957;1316;94367;-63
2021/11/10 10:46:17;;;;;;;27.60;17.40;;;;;;;12.35;53.04;101406.83;102492;1323;110037;-63
2021/11/10 10:49:19;;;;;;;24.40;17.00;;;;;;;12.31;52.74;101408.14;103457;1315;137679;-64
2021/11/10 10:52:15;;;;;;;25.50;17.90;;;;;;;12.34;53.58;101402.33;102499;1318;110572;-64
2021/11/10 10:55:03;;;;;;;29.40;17.20;;;;;;;12.40;53.03;101400.48;102446;1317;137635;-63
2021/11/10 10:57:55;;;;;;;24.20;17.20;;;;;;;12.46;53.86;101393.20;102427;1316;95752;-65
2021/11/10 11:00:42;;;;;;;26.30;17.00;;;;;;;12.57;53.81;101396.27;102049;1316;137594;-65
2021/11/10 11:03:29;;;;;;;26.90;17.00;;;;;;;12.63;53.72;101392.98;101871;1315;109290;-63
2021/11/10 11:06:23;;;;;;;;;;;;;;;12.71;53.70;101385.65;102275;1317;137892;-63
2021/11/10 11:09:26;;;;;;;30.40;17.20;;;;;;;12.77;53.33;101378.19;103615;1316;94465;-64
2021/11/10 11:12:29;;;;;;;23.40;16.10;;;;;;;12.75;53.18;101372.83;103376;1314;139877;-64
2021/11/10 11:15:25;;;;;;;24.40;15.50;;;;;;;12.70;53.76;101371.34;103568;1316;109988;-64
2021/11/10 11:18:20;;;;;;;26.40;15.60;;;;;;;12.67;53.37;101364.96;103485;1316;139072;-65
2021/11/10 11:21:26;;;;;;;24.60;16.10;;;;;;;12.66;53.39;101370.23;102936;1316;108924;-64
2021/11/10 11:24:32;;;;;;;25.60;17.00;;;;;;;12.74;53.20;101367.79;103912;1316;139527;-64
2021/11/10 11:27:30;;;;;;;26.40;16.00;;;;;;;12.75;53.59;101367.23;104551;1316;93645;-63
2021/11/10 11:30:17;;;;;;;25.10;15.80;;;;;;;12.70;52.66;101365.59;103888;1316;137544;-63
2021/11/10 11:33:15;;;;;;;21.20;15.20;;;;;;;12.60;53.14;101361.82;104604;1316;106956;-64
2021/11/10 11:36:03;;;;;;;23.60;15.70;;;;;;;12.56;53.50;101355.27;104379;1316;138104;-63
2021/11/10 11:38:49;;;;;;;23.90;16.40;;;;;;;12.48;53.02;101348.30;104528;1316;95130;-64
2021/11/10 11:41:39;;;;;;;26.70;16.40;;;;;;;12.33;52.90;101339.91;103415;1316;138279;-64
2021/11/10 11:44:26;;;;;;;25.40;17.30;;;;;;;12.17;53.25;101335.05;104604;1315;110563;-64
2021/11/10 11:47:18;;;;;;;24.10;16.30;;;;;;;12.03;53.54;101318.95;104453;1316;137842;-65
2021/11/10 11:50:05;;;;;;;25.80;16.00;;;;;;;11.93;53.92;101325.25;104292;1316;108856;-64
2021/11/10 11:52:54;;;;;;;28.40;16.20;;;;;;;11.90;54.36;101322.38;104539;1319;93125;-65
2021/11/10 11:55:55;;;;;;;29.00;17.20;;;;;;;11.84;53.99;101321.09;104521;1316;138057;-65
2021/11/10 11:58:50;;;;;;;23.50;15.30;;;;;;;11.71;54.14;101307.55;104606;1316;107809;-64
2021/11/10 12:01:38;;;;;;;24.90;16.30;;;;;;;11.64;54.06;101309.59;104423;1316;137874;-65
2021/11/10 12:04:30;;;;;;;25.20;15.70;;;;;;;11.59;54.51;101305.86;103213;1316;108897;-64
2021/11/10 12:07:45;;;;;;;25.50;15.80;;;;;;;11.58;54.60;101302.94;103313;1313;137754;-65
2021/11/10 12:10:34;;;;;;;23.80;15.70;;;;;;;11.60;54.98;101301.32;103547;1323;94060;-62
2021/11/10 12:13:22;;;;;;;23.90;15.90;;;;;;;11.63;54.48;101296.90;103557;1317;137497;-65
2021/11/10 12:16:14;;;;;;;23.90;16.60;;;;;;;11.57;54.49;101294.07;104477;1316;108005;-65
2021/11/10 12:19:03;;;;;;;23.50;16.00;;;;;;;11.48;54.70;101276.81;104428;1313;137593;-65
2021/11/10 12:21:59;;;;;;;22.20;16.00;;;;;;;11.43;54.65;101270.63;103796;1315;95166;-64
2021/11/10 12:25:00;;;;;;;20.20;15.30;;;;;;;11.40;54.44;101264.61;104123;1316;137432;-64
2021/11/10 12:27:48;;;;;;;21.90;15.10;;;;;;;11.42;54.83;101252.04;103236;1316;109889;-64
2021/11/10 12:30:43;;;;;;;24.50;15.70;;;;;;;11.48;55.13;101257.13;103148;1316;138536;-64
2021/11/10 12:33:33;;;;;;;26.40;17.40;;;;;;;11.55;55.03;101257.54;103937;1315;109183;-64
2021/11/10 12:36:50;;;;;;;23.90;14.90;;;;;;;11.56;54.72;101263.77;103570;1316;137948;-64
2021/11/10 12:39:40;;;;;;;22.00;15.30;;;;;;;11.49;54.78;101266.17;104570;1316;93927;-65
2021/11/10 12:42:42;;;;;;;27.40;16.30;;;;;;;11.42;55.10;101270.83;103100;1317;137803;-64
2021/11/10 12:45:35;;;;;;;25.80;15.80;;;;;;;11.34;55.04;101267.86;104363;1315;108502;-64
2021/11/10 12:48:25;;;;;;;22.50;14.90;;;;;;;11.29;55.10;101254.71;104432;1313;139139;-65
2021/11/10 12:51:18;;;;;;;23.80;16.00;;;;;;;11.29;55.63;101248.09;104550;1313;94670;-65
2021/11/10 12:54:19;;;;;;;24.90;15.10;;;;;;;11.32;55.85;101246.14;104485;1316;137771;-64
2021/11/10 12:57:07;;;;;;;22.80;14.80;;;;;;;11.36;55.57;101245.89;104298;1317;111142;-64
2021/11/10 12:59:55;;;;;;;23.60;15.70;;;;;;;11.35;55.40;101242.77;103054;1317;138130;-64
2021/11/10 13:02:53;;;;;;;22.60;15.00;;;;;;;11.30;55.21;101243.91;103159;1316;109898;-64
2021/11/10 13:05:49;;;;;;;22.30;15.60;;;;;;;11.26;55.75;101230.41;103292;1316;138305;-65
2021/11/10 13:09:04;;;;;;;25.10;15.80;;;;;;;11.26;55.67;101229.70;103216;1317;96499;-64
2021/11/10 13:11:52;;;;;;;24.80;15.60;;;;;;;11.20;55.91;101229.48;104130;1316;138400;-66
2021/11/10 13:14:47;;;;;;;24.50;15.60;;;;;;;11.16;56.06;101230.97;103910;1316;107856;-64
2021/11/10 13:17:37;;;;;;;22.70;15.80;;;;;;;11.10;56.31;101229.67;103038;1317;138169;-64
2021/11/10 13:20:24;;;;;;;22.60;16.10;;;;;;;11.06;56.58;101232.88;104155;1312;97820;-65
2021/11/10 13:23:11;;;;;;;23.20;16.30;;;;;;;10.98;56.75;101229.38;103532;1316;96400;-65
2021/11/10 13:26:00;;;;;;;25.30;16.60;;;;;;;10.95;56.98;101226.81;103482;1316;139931;-65
2021/11/10 13:28:53;;;;;;;25.40;16.70;;;;;;;10.95;57.10;101214.98;103310;1316;107117;-63
2021/11/10 13:31:40;;;;;;;31.60;17.70;;;;;;;10.94;57.15;101210.12;103485;1315;139218;-64
2021/11/10 13:34:31;;;;;;;24.80;16.10;;;;;;;10.92;57.43;101200.75;103540;1311;95602;-64
2021/11/10 13:37:19;;;;;;;29.60;16.80;;;;;;;10.91;57.36;101205.47;102728;1317;137989;-63
2021/11/10 13:40:07;;;;;;;27.60;17.90;;;;;;;10.83;57.51;101198.32;103665;1316;110716;-65
2021/11/10 13:42:56;;;;;;;29.60;18.50;;;;;;;10.72;57.88;101195.20;102920;1317;138005;-65
2021/11/10 13:45:43;;;;;;;28.00;17.90;;;;;;;10.65;58.14;101187.70;103673;1313;108018;-64
2021/11/10 13:48:30;;;;;;;28.30;17.90;;;;;;;10.57;58.38;101188.15;103266;1313;139953;-65
2021/11/10 13:51:17;;;;;;;25.10;17.00;;;;;;;10.47;58.40;101186.42;102231;1314;96490;-65
2021/11/10 13:54:14;;;;;;;28.10;17.70;;;;;;;10.38;58.74;101183.09;102165;1310;138139;-65
2021/11/10 13:57:22;;;;;;;28.00;18.90;;;;;;;10.25;58.92;101186.77;103608;1313;109186;-64
2021/11/10 14:00:13;;;;;;;32.20;19.30;;;;;;;10.11;59.35;101190.10;103543;1311;138686;-65
2021/11/10 14:03:00;;;;;;;28.40;18.00;;;;;;;10.02;59.63;101190.92;103635;1313;95840;-65
2021/11/10 14:05:47;;;;;;;31.20;19.10;;;;;;;9.93;59.82;101187.95;103488;1315;137823;-65
2021/11/10 14:08:33;;;;;;;27.40;18.40;;;;;;;9.84;60.08;101187.89;103414;1316;108023;-64
2021/11/10 14:11:20;;;;;;;27.00;17.70;;;;;;;9.76;60.30;101185.75;102219;1311;106876;-64
2021/11/10 14:14:07;;;;;;;31.20;18.40;;;;;;;9.67;60.60;101184.98;102103;1315;138711;-64
2021/11/10 14:16:55;;;;;;;28.30;18.70;;;;;;;9.62;60.84;101190.96;102194;1316;96545;-64
2021/11/10 14:19:42;;;;;;;29.30;19.10;;;;;;;9.55;60.99;101190.72;102031;1310;137984;-64
2021/11/10 14:22:31;;;;;;;33.20;20.30;;;;;;;9.44;61.31;101190.67;103309;1312;111192;-64
2021/11/10 14:25:20;;;;;;;33.20;20.80;;;;;;;9.31;61.55;101190.48;103454;1313;140214;-64
2021/11/10 14:28:08;;;;;;;33.50;21.00;;;;;;;9.22;61.91;101189.73;103666;1310;108827;-63
2021/11/10 14:31:02;;;;;;;32.10;20.20;;;;;;;9.12;62.25;101190.02;103478;1315;139828;-64
2021/11/10 14:34:03;;;;;;;32.40;21.70;;;;;;;9.00;62.67;101188.93;103343;1312;95270;-64
2021/11/10 14:36:50;;;;;;;33.20;20.30;;;;;;;8.87;63.02;101184.55;103486;1313;139416;-64
2021/11/10 14:39:37;;;;;;;31.50;19.30;;;;;;;8.77;63.53;101187.43;103321;1313;106617;-64
2021/11/10 14:42:34;;;;;;;36.20;19.90;;;;;;;8.70;63.66;101180.04;103559;1311;138845;-65
2021/11/10 14:45:23;;;;;;;33.70;21.10;;;;;;;8.63;63.98;101180.30;102868;1319;95345;-64
2021/11/10 14:48:10;;;;;;;33.60;22.40;;;;;;;8.55;64.50;101191.10;103554;1311;137630;-63
2021/11/10 14:50:59;;;;;;;34.90;22.30;;;;;;;8.42;65.10;101183.77;103632;1312;111344;-63
2021/11/10 14:54:02;;;;;;;36.00;21.50;;;;;;;8.29;65.35;101181.23;102714;1315;108935;-65
2021/11/10 14:56:57;;;;;;;32.10;20.00;;;;;;;8.16;66.06;101179.26;103582;1312;108189;-64
2021/11/10 14:59:47;;;;;;;34.00;21.30;;;;;;;8.05;66.33;101169.63;103480;1312;95953;-64
2021/11/10 15:02:36;;;;;;;37.40;22.30;;;;;;;7.99;66.74;101167.42;103420;1312;138113;-64
2021/11/10 15:05:23;;;;;;;33.90;21.80;;;;;;;7.92;67.01;101179.43;102500;1324;111210;-64
2021/11/10 15:08:10;;;;;;;36.20;22.70;;;;;;;7.84;67.32;101183.61;103501;1315;140342;-64
2021/11/10 15:10:59;;;;;;;;;;;;;;;7.75;67.48;101178.84;103654;1316;108727;-64
2021/11/10 15:13:46;;;;;;;35.50;21.70;;;;;;;7.66;67.69;101174.72;103210;1313;124785;-64
2021/11/10 15:16:34;;;;;;;34.40;21.90;;;;;;;7.58;67.97;101167.67;103672;1313;95645;-64
2021/11/10 15:19:20;;;;;;;32.00;20.80;;;;;;;7.53;68.19;101173.41;103556;1316;138187;-64
2021/11/10 15:22:21;;;;;;;37.80;23.10;;;;;;;7.50;68.53;101172.55;103640;1313;108382;-64
2021/11/10 15:25:13;;;;;;;37.40;23.60;;;;;;;7.51;69.21;101175.83;103419;1310;137927;-65
2021/11/10 15:28:03;;;;;;;38.00;24.50;;;;;;;7.51;68.93;101170.80;103591;1316;96057;-64
2021/11/10 15:30:54;;;;;;;33.10;23.00;;;;;;;7.45;68.91;101171.38;103521;1315;139419;-64
2021/11/10 15:33:40;;;;;;;32.70;22.00;;;;;;;7.36;68.97;101174.34;103425;1314;111106;-64
2021/11/10 15:36:27;;;;;;;32.60;21.40;;;;;;;7.28;69.28;101167.11;103474;1316;140323;-62
2021/11/10 15:39:14;;;;;;;35.60;23.00;;;;;;;7.22;69.42;101167.33;103516;1313;109890;-64
2021/11/10 15:42:02;;;;;;;;;;;;;;;7.18;69.56;101153.33;103570;1316;95475;-63
2021/11/10 15:44:54;;;;;;;35.70;22.60;;;;;;;7.13;69.89;101157.65;103487;1313;125271;-64
2021/11/10 15:47:42;;;;;;;34.90;22.80;;;;;;;7.08;70.06;101157.85;103617;1316;111247;-64
2021/11/10 15:50:29;;;;;;;35.60;21.90;;;;;;;7.03;70.30;101158.05;102352;1316;137837;-64
2021/11/10 15:53:16;;;;;;;;;;;;;;;6.96;70.34;101161.86;103176;1315;108082;-64
2021/11/10 15:56:03;;;;;;;34.10;22.20;;;;;;;6.91;70.28;101159.29;102902;1317;126069;-63
2021/11/10 15:58:50;;;;;;;33.50;21.60;;;;;;;6.89;70.75;101158.60;102893;1313;96499;-63
2021/11/10 16:01:39;;;;;;;38.60;23.20;;;;;;;6.88;70.52;101157.73;102066;1313;139185;-63
2021/11/10 16:04:27;;;;;;;33.30;22.80;;;;;;;6.84;70.79;101156.89;102085;1315;111305;-64
2021/11/10 16:07:14;;;;;;;36.20;23.60;;;;;;;6.79;70.72;101153.77;102048;1316;138046;-64
2021/11/10 16:10:02;;;;;;;35.60;22.90;;;;;;;6.73;71.01;101154.30;102166;1313;96499;-64
2021/11/10 16:12:49;;;;;;;39.00;23.20;;;;;;;6.66;71.33;101156.59;102022;1316;138782;-64
2021/11/10 16:15:37;;;;;;;32.30;21.20;;;;;;;6.62;71.35;101154.14;103604;1313;113414;-64
2021/11/10 16:18:26;;;;;;;33.10;22.00;;;;;;;6.59;71.50;101156.05;103338;1316;292805;-64
2021/11/10 16:21:12;;;;;;;33.70;23.60;;;;;;;6.57;71.74;101153.47;103519;1315;138243;-63
2021/11/10 16:23:59;;;;;;;33.40;23.10;;;;;;;6.54;72.03;101152.80;103569;1316;94916;-65
2021/11/10 16:26:48;;;;;;;35.30;23.30;;;;;;;6.48;72.15;101150.04;103526;1311;137693;-64
2021/11/10 16:29:47;;;;;;;34.50;21.90;;;;;;;6.41;72.27;101153.31;103107;1315;110145;-65
2021/11/10 16:35:26;;;;;;;33.90;21.00;;;;;;;6.35;72.75;101154.19;103567;1315;108886;-64
2021/11/10 16:38:15;;;;;;;36.10;22.00;;;;;;;6.33;72.76;101149.52;103418;1311;139930;-65
2021/11/10 16:41:05;;;;;;;39.80;23.80;;;;;;;6.32;72.82;101146.59;103255;1317;96081;-65
2021/11/10 16:43:52;;;;;;;38.50;25.00;;;;;;;6.28;73.10;101146.42;102947;1316;138197;-65
2021/11/10 16:46:39;;;;;;;40.60;24.60;;;;;;;6.23;73.15;101145.02;103359;1316;110674;-66
2021/11/10 16:49:26;;;;;;;37.60;23.40;;;;;;;6.19;73.31;101144.52;102120;1316;138775;-66
2021/11/10 16:52:15;;;;;;;38.40;23.60;;;;;;;6.16;73.67;101145.91;102261;1315;98333;-63
2021/11/10 16:55:04;;;;;;;38.50;24.20;;;;;;;6.14;73.72;101141.08;102844;1316;138538;-65
2021/11/10 16:57:51;;;;;;;41.80;25.50;;;;;;;6.09;73.49;101132.25;102345;1316;111321;-64
2021/11/10 17:00:38;;;;;;;;;;;;;;;6.05;73.99;101137.08;103568;1316;108696;-67
2021/11/10 17:03:26;;;;;;;49.30;27.00;;;;;;;5.98;74.24;101138.30;103154;1316;124082;-65
2021/11/10 17:06:14;;;;;;;43.10;25.80;;;;;;;5.91;74.20;101141.02;103343;1315;97132;-64
2021/11/10 17:09:01;;;;;;;42.40;26.60;;;;;;;5.88;74.17;101136.52;104442;1315;139110;-65
2021/11/10 17:11:48;;;;;;;39.40;25.40;;;;;;;5.86;74.47;101139.27;104605;1317;111180;-65
2021/11/10 17:14:35;;;;;;;47.20;27.00;;;;;;;5.84;74.34;101136.00;104154;1319;138978;-64
2021/11/10 17:17:22;;;;;;;43.50;27.70;;;;;;;5.83;74.47;101136.34;104549;1315;108954;-64
2021/11/10 17:20:09;;;;;;;50.60;27.30;;;;;;;5.81;74.40;101136.52;103879;1316;138533;-64
2021/11/10 17:22:56;;;;;;;48.80;28.10;;;;;;;5.77;74.59;101135.65;103980;1316;94400;-64
2021/11/10 17:25:43;;;;;;;48.60;28.30;;;;;;;5.74;74.57;101131.16;103234;1319;139088;-64
2021/11/10 17:28:30;;;;;;;42.10;27.30;;;;;;;5.73;74.73;101126.13;104570;1316;108863;-66
2021/11/10 17:31:17;;;;;;;47.90;27.30;;;;;;;5.73;74.76;101123.36;104143;1315;138107;-66
2021/11/10 17:34:04;;;;;;;49.70;29.20;;;;;;;5.71;74.68;101122.52;104647;1313;95964;-65
2021/11/10 17:36:51;;;;;;;48.00;30.50;;;;;;;5.71;74.86;101120.08;104663;1313;94763;-66
2021/11/10 17:39:40;;;;;;;48.00;29.60;;;;;;;5.67;74.87;101116.81;104472;1315;138516;-65
2021/11/10 17:42:27;;;;;;;50.00;29.00;;;;;;;5.66;74.88;101119.40;104543;1313;107981;-65
2021/11/10 17:45:17;;;;;;;50.90;29.40;;;;;;;5.63;74.94;101117.50;104437;1314;139245;-65
2021/11/10 17:48:05;;;;;;;50.10;29.90;;;;;;;5.63;75.10;101114.56;104594;1316;94837;-64
2021/11/10 17:50:52;;;;;;;47.90;29.50;;;;;;;5.62;75.15;101110.26;104489;1313;138723;-65
2021/11/10 17:53:39;;;;;;;50.60;30.50;;;;;;;5.60;75.04;101112.84;103742;1316;111239;-65
2021/11/10 17:56:25;;;;;;;49.90;30.40;;;;;;;5.56;75.17;101113.17;104368;1313;137918;-66
2021/11/10 17:59:13;;;;;;;51.40;30.00;;;;;;;5.52;75.29;101112.29;104301;1313;108098;-65
2021/11/10 18:02:00;;;;;;;48.80;29.70;;;;;;;5.49;75.35;101112.80;103845;1313;139543;-64
2021/11/10 18:04:51;;;;;;;53.20;30.70;;;;;;;5.46;75.36;101110.56;104663;1313;94792;-64
2021/11/10 18:07:38;;;;;;;50.70;31.60;;;;;;;5.47;75.19;101107.80;104546;1310;138332;-64
2021/11/10 18:10:26;;;;;;;51.90;30.90;;;;;;;5.42;75.04;101105.73;104657;1314;108047;-64
2021/11/10 18:13:15;;;;;;;53.40;32.50;;;;;;;5.38;75.36;101103.81;104531;1315;108934;-64
2021/11/10 18:16:02;;;;;;;48.30;29.90;;;;;;;5.36;75.27;101100.00;104621;1313;96233;-65
2021/11/10 18:18:50;;;;;;;49.90;30.90;;;;;;;5.35;75.43;101097.59;104652;1314;94521;-64
2021/11/10 18:21:37;;;;;;;56.20;31.20;;;;;;;5.34;75.49;101096.21;104550;1313;138320;-65
2021/11/10 18:24:24;;;;;;;53.90;30.40;;;;;;;5.34;75.33;101093.44;104662;1313;108971;-65
2021/11/10 18:27:11;;;;;;;50.70;30.10;;;;;;;5.37;75.69;101094.83;103200;1321;138430;-64
2021/11/10 18:29:59;;;;;;;49.30;30.60;;;;;;;5.37;75.09;101089.14;103284;1316;97857;-64
2021/11/10 18:32:47;;;;;;;51.90;32.30;;;;;;;5.35;75.48;101085.17;104120;1316;137432;-64
2021/11/10 18:35:34;;;;;;;53.30;31.40;;;;;;;5.30;75.42;101083.79;104245;1316;110180;-65
2021/11/10 18:38:21;;;;;;;53.50;32.20;;;;;;;5.24;75.65;101082.05;104435;1316;138328;-65
2021/11/10 18:41:08;;;;;;;50.30;30.60;;;;;;;5.18;75.55;101079.09;102997;1316;107988;-65
2021/11/10 18:43:55;;;;;;;52.80;30.00;;;;;;;5.15;75.85;101077.52;102922;1316;138891;-63
2021/11/10 18:46:42;;;;;;;47.40;31.00;;;;;;;5.14;75.62;101080.29;103727;1317;94597;-64
2021/11/10 18:49:29;;;;;;;53.90;31.10;;;;;;;5.13;75.85;101077.70;104580;1316;111285;-63
2021/11/10 18:52:16;;;;;;;53.20;31.80;;;;;;;5.11;76.05;101074.08;103950;1316;137912;-65
2021/11/10 18:55:05;;;;;;;55.60;33.30;;;;;;;5.07;75.94;101077.00;103798;1316;109099;-64
2021/11/10 18:57:53;;;;;;;53.70;33.00;;;;;;;5.04;75.85;101076.13;104158;1313;138753;-63
2021/11/10 19:00:39;;;;;;;52.30;32.30;;;;;;;5.01;75.66;101077.65;103745;1313;95992;-64
2021/11/10 19:03:28;;;;;;;50.60;30.70;;;;;;;4.98;76.05;101074.55;102536;1314;138984;-64
2021/11/10 19:12:18;;;;;;;52.00;33.30;;;;;;;4.99;76.27;101068.33;103428;1316;96688;-65
2021/11/10 19:23:35;;;;;;;67.20;39.70;;;;;;;4.92;75.92;101051.09;103173;1316;108861;-63
2021/11/10 19:26:23;;;;;;;;;;;;;;;4.88;76.23;101049.35;102285;1313;138404;-63
2021/11/10 19:29:14;;;;;;;63.70;38.50;;;;;;;4.85;76.12;101051.25;103501;1313;96420;-64
2021/11/10 19:32:02;;;;;;;64.70;37.50;;;;;;;4.85;76.27;101047.11;102429;1313;138539;-64
2021/11/10 19:34:49;;;;;;;57.90;33.70;;;;;;;4.86;76.24;101048.84;102317;1312;109008;-64
2021/11/10 19:37:36;;;;;;;57.70;35.70;;;;;;;4.86;76.26;101047.63;103085;1313;108742;-65
2021/11/10 19:40:24;;;;;;;57.20;34.50;;;;;;;4.83;76.40;101046.73;103163;1314;138673;-64
2021/11/10 19:43:12;;;;;;;56.20;32.60;;;;;;;4.79;76.52;101047.06;103345;1313;94840;-64
2021/11/10 19:46:00;;;;;;;58.70;32.80;;;;;;;4.74;76.57;101047.21;103221;1314;139135;-64
2021/11/10 19:48:48;;;;;;;51.30;31.60;;;;;;;4.72;76.64;101049.96;103680;1315;109073;-64
2021/11/10 19:51:35;;;;;;;54.10;32.20;;;;;;;4.72;76.87;101052.04;102191;1314;138407;-64
2021/11/10 19:54:24;;;;;;;59.40;33.80;;;;;;;4.71;76.87;101049.63;102251;1316;96621;-65
2021/11/10 19:57:18;;;;;;;52.90;33.90;;;;;;;4.68;77.15;101047.38;102255;1316;138079;-64
2021/11/10 20:00:08;;;;;;;50.40;31.70;;;;;;;4.62;76.96;101042.15;103645;1309;111187;-64
2021/11/10 20:03:01;;;;;;;53.50;32.10;;;;;;;4.58;77.25;101039.90;103491;1315;138603;-64
2021/11/10 20:05:48;;;;;;;50.50;31.30;;;;;;;4.54;77.42;101041.27;103754;1311;108870;-65
2021/11/10 20:08:35;;;;;;;51.60;32.20;;;;;;;4.54;77.50;101041.80;102756;1317;138775;-64
2021/11/10 20:11:24;;;;;;;54.40;33.50;;;;;;;4.53;77.63;101039.73;102662;1315;95096;-64
2021/11/10 20:14:11;;;;;;;;;;;;;;;4.54;77.29;101040.59;103422;1310;137704;-65
2021/11/10 20:16:59;;;;;;;56.60;34.70;;;;;;;4.52;77.50;101036.96;103698;1314;111188;-64
2021/11/10 20:19:46;;;;;;;55.40;33.80;;;;;;;4.51;77.48;101033.17;103130;1315;107914;-64
2021/11/10 20:22:33;;;;;;;55.10;33.70;;;;;;;4.53;77.22;101037.31;102645;1316;139000;-63
2021/11/10 20:25:20;;;;;;;;;;;;;;;4.56;77.20;101038.17;103592;1316;96552;-65
2021/11/10 20:28:09;;;;;;;55.60;34.40;;;;;;;4.57;77.24;101036.80;103673;1313;124716;-65
2021/11/10 20:30:55;;;;;;;58.40;33.50;;;;;;;4.61;77.36;101038.71;102671;1325;110062;-64
2021/11/10 20:33:43;;;;;;;52.90;34.20;;;;;;;4.64;77.25;101039.23;103048;1313;137648;-64
2021/11/10 20:36:29;;;;;;;56.60;35.30;;;;;;;4.64;77.11;101039.58;103728;1310;94735;-64
2021/11/10 20:39:17;;;;;;;57.00;35.60;;;;;;;4.61;76.91;101034.06;103364;1312;137356;-64
2021/11/10 20:42:06;;;;;;;52.60;34.20;;;;;;;4.56;77.13;101035.77;103635;1316;112873;-65
2021/11/10 20:44:53;;;;;;;57.10;34.60;;;;;;;4.54;76.82;101033.87;103672;1314;138569;-65
2021/11/10 20:47:40;;;;;;;;;;;;;;;4.52;77.07;101031.80;103683;1316;108795;-64
2021/11/10 20:50:29;;;;;;;53.40;32.60;;;;;;;4.52;76.97;101029.20;103657;1314;125334;-64
2021/11/10 20:53:17;;;;;;;54.50;33.40;;;;;;;4.52;77.13;101026.98;103762;1310;96052;-64
2021/11/10 20:56:04;;;;;;;;;;;;;;;4.51;77.03;101026.80;103542;1314;111229;-63
2021/11/10 20:58:51;;;;;;;56.80;36.10;;;;;;;4.50;77.03;101022.14;103435;1313;124333;-63
2021/11/10 21:01:39;;;;;;;58.30;35.00;;;;;;;4.46;77.30;101015.21;103204;1313;109460;-63
2021/11/10 21:04:26;;;;;;;55.90;33.60;;;;;;;4.43;77.38;101010.03;102139;1313;138271;-63